This is the latest recevied weather packets stored in our database for station/object SM6LNJ-13. If no packets are shown the sender has not sent any weather packets the latest 10 day(s).
| Time | Temp. | Humidity | Pressure | Rain* | Wind** | Luminosity | Snow |
|---|---|---|---|---|---|---|---|
| 1777653832 | 18.33° C | 49% | 1439.3 hPa | 0 mm | - | - | - |
| 1777653712 | 18.33° C | 49% | 1439.3 hPa | 0 mm | - | - | - |
| 1777652033 | 18.33° C | 48% | 1438.6 hPa | 0 mm | - | - | - |
| 1777651546 | 18.33° C | 49% | 1438.5 hPa | 0 mm | - | - | - |
| 1777651073 | 18.33° C | 48% | 1438.8 hPa | 0 mm | - | - | - |
| 1777650472 | 17.78° C | 49% | 1437.5 hPa | 0 mm | - | - | - |
| 1777650353 | 17.78° C | 50% | 1436.9 hPa | 0 mm | - | - | - |
| 1777650233 | 17.22° C | 51% | 1436.2 hPa | 0 mm | - | - | - |
| 1777650113 | 16.67° C | 52% | 1435.4 hPa | 0 mm | - | - | - |
| 1777649993 | 16.67° C | 51% | 1434.7 hPa | 0 mm | - | - | - |
| 1777649273 | 16.11° C | 51% | 1434 hPa | 0 mm | - | - | - |
| 1777649153 | 16.67° C | 52% | 1434.6 hPa | 0 mm | - | - | - |
| 1777648672 | 16.67° C | 50% | 1435.4 hPa | 0 mm | - | - | - |
| 1777648553 | 17.22° C | 50% | 1436.2 hPa | 0 mm | - | - | - |
| 1777648433 | 17.22° C | 51% | 1436.2 hPa | 0 mm | - | - | - |
| 1777648312 | 17.22° C | 50% | 1435.8 hPa | 0 mm | - | - | - |
| 1777648072 | 17.22° C | 51% | 1436.2 hPa | 0 mm | - | - | - |
| 1777647593 | 18.33° C | 49% | 1439 hPa | 0 mm | - | - | - |
| 1777647473 | 18.33° C | 49% | 1438.4 hPa | 0 mm | - | - | - |
| 1777647352 | 17.78° C | 49% | 1438 hPa | 0 mm | - | - | - |
| 1777646873 | 18.33° C | 47% | 1439.4 hPa | 0 mm | - | - | - |
| 1777646753 | 18.89° C | 47% | 1439.8 hPa | 0 mm | - | - | - |
| 1777646393 | 19.44° C | 46% | 1441.2 hPa | 0 mm | - | - | - |
| 1777646273 | 18.89° C | 47% | 1440.7 hPa | 0 mm | - | - | - |
| 1777645786 | 18.89° C | 46% | 1440.3 hPa | 0 mm | - | - | - |
* Rain latest hour (hover to see other rain measurements)
** Current wind speed in m/s (hover to see current wind gust speed)